createdAt,value
2018-09-04T00:00:04.406Z,15.70
2018-09-04T00:02:32.806Z,16.10
2018-09-04T00:05:01.276Z,16.00
2018-09-04T00:07:29.700Z,16.00
2018-09-04T00:09:58.106Z,15.60
2018-09-04T00:12:26.503Z,15.90
2018-09-04T00:14:54.934Z,15.90
2018-09-04T00:17:23.484Z,16.00
2018-09-04T00:19:51.903Z,16.10
2018-09-04T00:22:20.301Z,16.10
2018-09-04T00:24:48.692Z,16.10
2018-09-04T00:27:17.082Z,16.10
2018-09-04T00:29:45.502Z,16.10
2018-09-04T00:32:13.902Z,16.10
2018-09-04T00:34:42.316Z,16.00
2018-09-04T00:37:10.841Z,15.70
2018-09-04T00:39:39.262Z,16.00
2018-09-04T00:42:07.690Z,16.00
2018-09-04T00:44:36.098Z,16.00
2018-09-04T00:47:04.526Z,15.80
2018-09-04T00:49:32.935Z,16.20
2018-09-04T00:52:01.332Z,16.10
2018-09-04T00:54:29.776Z,16.00
2018-09-04T00:56:58.210Z,16.00
2018-09-04T00:59:26.622Z,16.00
2018-09-04T01:01:55.051Z,16.00
2018-09-04T01:04:23.479Z,16.10
2018-09-04T01:06:51.878Z,15.70
2018-09-04T01:09:21.984Z,16.00
2018-09-04T01:11:50.518Z,15.90
2018-09-04T01:14:18.895Z,16.00
2018-09-04T01:16:47.302Z,16.00
2018-09-04T01:19:15.740Z,15.80
2018-09-04T01:21:44.157Z,15.90
2018-09-04T01:24:12.791Z,15.60
2018-09-04T01:26:41.190Z,15.90
2018-09-04T01:29:09.654Z,15.90
2018-09-04T01:31:38.059Z,16.00
2018-09-04T01:34:06.525Z,15.90
2018-09-04T01:36:34.959Z,15.90
2018-09-04T01:39:03.770Z,15.90
2018-09-04T01:41:32.232Z,16.10
2018-09-04T01:44:00.741Z,16.00
2018-09-04T01:46:29.146Z,16.00
2018-09-04T01:48:57.561Z,15.90
2018-09-04T01:51:25.956Z,15.90
2018-09-04T01:53:54.353Z,15.90
2018-09-04T01:56:22.769Z,15.80
2018-09-04T01:58:51.168Z,15.80
2018-09-04T02:01:19.629Z,15.80
2018-09-04T02:03:48.005Z,15.80
2018-09-04T02:06:16.436Z,15.90
2018-09-04T02:08:44.950Z,15.80
2018-09-04T02:11:13.371Z,15.60
2018-09-04T02:13:41.759Z,15.70
2018-09-04T02:16:10.209Z,15.70
2018-09-04T02:18:38.764Z,15.70
2018-09-04T02:21:07.163Z,16.00
2018-09-04T02:23:35.571Z,15.80
2018-09-04T02:26:04.099Z,15.80
2018-09-04T02:28:32.495Z,15.70
2018-09-04T02:31:00.940Z,15.80
2018-09-04T02:33:29.318Z,15.70
2018-09-04T02:35:57.750Z,15.60
2018-09-04T02:38:26.143Z,15.50
2018-09-04T02:40:54.558Z,15.50
2018-09-04T02:43:22.952Z,15.00
2018-09-04T02:45:51.364Z,15.50
2018-09-04T02:48:19.758Z,15.50
2018-09-04T02:50:48.242Z,15.50
2018-09-04T02:53:16.669Z,15.80
2018-09-04T02:55:45.106Z,15.40
2018-09-04T02:58:13.527Z,15.40
2018-09-04T03:00:41.945Z,15.50
2018-09-04T03:03:10.333Z,16.30
2018-09-04T03:05:38.747Z,15.50
2018-09-04T03:08:07.221Z,15.50
2018-09-04T03:10:35.717Z,15.50
2018-09-04T03:13:04.129Z,15.50
2018-09-04T03:15:32.517Z,15.50
2018-09-04T03:18:01.043Z,15.40
2018-09-04T03:20:29.581Z,15.50
2018-09-04T03:22:58.066Z,15.40
2018-09-04T03:25:26.606Z,15.40
2018-09-04T03:30:23.158Z,15.50
2018-09-04T03:32:52.412Z,15.40
2018-09-04T03:35:20.807Z,15.40
2018-09-04T03:37:49.223Z,15.40
2018-09-04T03:40:17.615Z,15.40
2018-09-04T03:42:46.096Z,15.40
2018-09-04T03:45:14.515Z,15.40
2018-09-04T03:47:42.930Z,15.40
2018-09-04T03:50:11.359Z,15.50
2018-09-04T03:52:39.753Z,15.40
2018-09-04T03:55:08.172Z,15.50
2018-09-04T03:57:36.585Z,15.50
2018-09-04T04:00:05.128Z,15.30
2018-09-04T04:02:33.544Z,15.40
2018-09-04T04:05:01.945Z,15.20
2018-09-04T04:07:30.354Z,15.40
2018-09-04T04:09:58.756Z,15.30
2018-09-04T04:12:27.163Z,15.40
2018-09-04T04:14:55.589Z,15.30
2018-09-04T04:17:24.040Z,15.30
2018-09-04T04:19:52.428Z,15.20
2018-09-04T04:22:20.902Z,15.10
2018-09-04T04:24:49.449Z,15.30
2018-09-04T04:27:17.856Z,15.30
2018-09-04T04:29:46.432Z,15.30
2018-09-04T04:34:42.929Z,15.30
2018-09-04T04:37:11.347Z,15.20
2018-09-04T04:39:39.786Z,15.30
2018-09-04T04:42:08.211Z,15.50
2018-09-04T04:44:36.680Z,15.40
2018-09-04T04:47:05.098Z,15.10
2018-09-04T04:49:33.566Z,15.30
2018-09-04T04:52:01.969Z,15.30
2018-09-04T04:54:30.430Z,15.30
2018-09-04T04:56:58.834Z,15.20
2018-09-04T04:59:27.228Z,15.20
2018-09-04T05:01:55.626Z,14.90
2018-09-04T05:04:24.052Z,15.30
2018-09-04T05:06:52.481Z,15.20
2018-09-04T05:09:21.087Z,15.30
2018-09-04T05:11:49.754Z,15.30
2018-09-04T05:16:46.284Z,15.30
2018-09-04T05:19:14.683Z,15.20
2018-09-04T05:21:43.144Z,15.20
2018-09-04T05:24:11.542Z,15.30
2018-09-04T05:26:40.092Z,15.30
2018-09-04T05:29:08.650Z,15.30
2018-09-04T05:31:43.520Z,15.30
2018-09-04T05:34:11.975Z,15.40
2018-09-04T05:36:40.466Z,15.30
2018-09-04T05:39:10.050Z,15.30
2018-09-04T05:41:38.483Z,15.30
2018-09-04T05:44:06.976Z,15.40
2018-09-04T05:46:38.910Z,15.40
2018-09-04T05:49:08.353Z,15.40
2018-09-04T05:51:36.795Z,15.40
2018-09-04T05:54:05.370Z,15.60
2018-09-04T05:56:33.826Z,15.40
2018-09-04T05:59:02.236Z,15.40
2018-09-04T06:01:30.750Z,15.40
2018-09-04T06:03:59.806Z,15.40
2018-09-04T06:06:28.907Z,15.40
2018-09-04T06:08:57.418Z,15.70
2018-09-04T06:11:25.862Z,15.50
2018-09-04T06:13:54.276Z,15.50
2018-09-04T06:16:22.728Z,15.50
2018-09-04T06:18:51.186Z,15.40
2018-09-04T06:21:19.590Z,15.40
2018-09-04T06:23:48.025Z,15.40
2018-09-04T06:26:17.405Z,15.50
2018-09-04T06:28:45.903Z,15.80
2018-09-04T06:31:14.415Z,15.70
2018-09-04T06:33:42.799Z,15.70
2018-09-04T06:36:11.367Z,15.90
2018-09-04T06:38:39.912Z,15.80
2018-09-04T06:41:08.421Z,15.90
2018-09-04T06:43:36.933Z,16.00
2018-09-04T06:46:06.335Z,16.20
2018-09-04T06:48:35.122Z,16.10
2018-09-04T06:51:03.537Z,16.20
2018-09-04T06:53:31.952Z,16.20
2018-09-04T06:56:00.347Z,16.20
2018-09-04T06:58:28.768Z,16.30
2018-09-04T07:00:57.155Z,16.40
2018-09-04T07:03:25.584Z,16.40
2018-09-04T07:05:53.991Z,16.50
2018-09-04T07:08:22.501Z,16.50
2018-09-04T07:10:50.906Z,16.50
2018-09-04T07:13:19.441Z,16.80
2018-09-04T07:15:47.841Z,17.10
2018-09-04T07:18:16.317Z,17.10
2018-09-04T07:20:44.731Z,17.00
2018-09-04T07:23:13.191Z,17.00
2018-09-04T07:25:41.575Z,17.00
2018-09-04T07:28:09.996Z,16.80
2018-09-04T07:30:38.440Z,17.00
2018-09-04T07:33:06.875Z,16.90
2018-09-04T07:35:35.257Z,17.00
2018-09-04T07:38:03.694Z,17.10
2018-09-04T07:40:32.109Z,17.20
2018-09-04T07:43:00.506Z,17.20
2018-09-04T07:45:28.948Z,17.30
2018-09-04T07:47:57.409Z,17.50
2018-09-04T07:50:25.808Z,17.40
2018-09-04T07:52:54.291Z,17.40
2018-09-04T07:55:22.704Z,17.40
2018-09-04T07:57:51.147Z,17.50
2018-09-04T08:00:19.721Z,17.50
2018-09-04T08:02:48.139Z,17.60
2018-09-04T08:05:16.560Z,17.60
2018-09-04T08:07:44.988Z,17.80
2018-09-04T08:10:13.491Z,17.70
2018-09-04T08:12:41.913Z,18.20
2018-09-04T08:15:10.442Z,18.00
2018-09-04T08:17:39.033Z,18.00
2018-09-04T08:20:07.490Z,18.10
2018-09-04T08:22:35.940Z,18.20
2018-09-04T08:25:04.508Z,18.10
2018-09-04T08:27:32.936Z,18.00
2018-09-04T08:30:01.342Z,18.00
2018-09-04T08:32:29.882Z,18.00
2018-09-04T08:34:58.879Z,18.10
2018-09-04T08:37:27.360Z,18.10
2018-09-04T08:42:23.902Z,18.20
2018-09-04T08:44:52.624Z,18.20
2018-09-04T08:47:21.347Z,18.20
2018-09-04T08:49:49.706Z,18.20
2018-09-04T08:52:18.128Z,18.20
2018-09-04T08:54:46.640Z,18.10
2018-09-04T08:57:16.020Z,17.80
2018-09-04T08:59:44.563Z,17.80
2018-09-04T09:02:13.212Z,17.50
2018-09-04T09:04:41.682Z,17.50
2018-09-04T09:07:10.190Z,17.30
2018-09-04T09:09:38.602Z,17.30
2018-09-04T09:12:07.208Z,17.30
2018-09-04T09:14:35.746Z,17.20
2018-09-04T09:17:04.405Z,17.10
2018-09-04T09:19:32.938Z,17.00
2018-09-04T09:22:01.445Z,16.80
2018-09-04T09:24:29.985Z,16.70
2018-09-04T09:26:58.499Z,16.80
2018-09-04T09:29:27.037Z,16.60
2018-09-04T09:31:55.547Z,16.70
2018-09-04T09:34:23.975Z,16.70
2018-09-04T09:36:52.701Z,16.80
2018-09-04T09:39:21.037Z,16.90
2018-09-04T09:41:49.457Z,17.00
2018-09-04T09:44:17.867Z,17.40
2018-09-04T09:46:46.266Z,17.20
2018-09-04T09:49:14.703Z,17.90
2018-09-04T09:51:43.161Z,17.70
2018-09-04T09:54:11.604Z,18.00
2018-09-04T09:56:40.063Z,17.90
2018-09-04T09:59:08.457Z,18.00
2018-09-04T10:01:42.176Z,17.80
2018-09-04T10:04:10.650Z,17.80
2018-09-04T10:06:39.135Z,17.90
2018-09-04T10:09:08.569Z,18.00
2018-09-04T10:11:37.073Z,18.20
2018-09-04T10:14:05.883Z,18.30
2018-09-04T10:16:34.357Z,18.30
2018-09-04T10:19:02.784Z,18.30
2018-09-04T10:21:31.391Z,18.30
2018-09-04T10:23:59.950Z,18.40
2018-09-04T10:26:29.048Z,18.40
2018-09-04T10:28:57.517Z,18.60
2018-09-04T10:31:26.359Z,18.60
2018-09-04T10:33:54.775Z,18.70
2018-09-04T10:36:23.212Z,18.60
2018-09-04T10:38:56.287Z,18.50
2018-09-04T10:41:25.567Z,18.50
2018-09-04T10:43:54.148Z,18.60
2018-09-04T10:46:22.547Z,18.80
2018-09-04T10:48:50.947Z,18.80
2018-09-04T10:51:19.526Z,18.80
2018-09-04T10:53:47.981Z,18.80
2018-09-04T10:56:16.473Z,18.90
2018-09-04T10:58:45.035Z,19.10
2018-09-04T11:01:13.443Z,19.20
2018-09-04T11:03:41.865Z,19.10
2018-09-04T11:06:10.277Z,19.00
2018-09-04T11:08:38.865Z,19.00
2018-09-04T11:11:07.312Z,19.40
2018-09-04T11:13:35.822Z,19.40
2018-09-04T11:16:04.542Z,19.40
2018-09-04T11:18:33.067Z,19.90
2018-09-04T11:21:01.551Z,20.00
2018-09-04T11:23:29.985Z,20.70
2018-09-04T11:25:58.455Z,20.70
2018-09-04T11:28:28.883Z,20.50
2018-09-04T11:30:57.318Z,20.40
2018-09-04T11:33:25.771Z,20.30
2018-09-04T11:35:54.212Z,20.10
2018-09-04T11:38:22.700Z,19.80
2018-09-04T11:40:51.106Z,19.60
2018-09-04T11:43:19.530Z,19.70
2018-09-04T11:45:47.961Z,19.60
2018-09-04T11:48:17.626Z,19.50
2018-09-04T11:50:46.269Z,19.50
2018-09-04T11:53:14.690Z,19.40
2018-09-04T11:55:43.128Z,19.40
2018-09-04T11:58:11.569Z,19.60
2018-09-04T12:00:43.031Z,19.60
2018-09-04T12:03:12.924Z,19.80
2018-09-04T12:05:41.427Z,19.90
2018-09-04T12:08:10.070Z,20.10
2018-09-04T12:10:38.867Z,20.90
2018-09-04T12:13:07.362Z,21.60
2018-09-04T12:15:39.624Z,22.40
2018-09-04T12:18:09.243Z,22.80
2018-09-04T12:20:41.535Z,22.80
2018-09-04T12:23:10.382Z,23.50
2018-09-04T12:25:39.247Z,23.50
2018-09-04T12:28:07.761Z,23.40
2018-09-04T12:30:36.313Z,23.10
2018-09-04T12:33:04.941Z,22.60
2018-09-04T12:35:34.255Z,22.60
2018-09-04T12:38:03.094Z,23.10
2018-09-04T12:40:31.636Z,23.50
2018-09-04T12:43:01.654Z,23.40
2018-09-04T12:45:34.688Z,23.80
2018-09-04T12:48:03.560Z,23.90
2018-09-04T12:50:32.032Z,24.00
2018-09-04T12:53:00.440Z,23.70
2018-09-04T12:55:28.854Z,23.40
2018-09-04T13:00:25.421Z,23.00
2018-09-04T13:02:53.819Z,22.70
2018-09-04T13:05:22.221Z,22.40
2018-09-04T13:07:50.665Z,22.10
2018-09-04T13:10:19.059Z,21.90
2018-09-04T13:12:47.437Z,21.80
2018-09-04T13:15:16.340Z,21.80
2018-09-04T13:17:44.719Z,21.60
2018-09-04T13:20:13.205Z,21.20
2018-09-04T13:22:41.594Z,21.20
2018-09-04T13:25:10.056Z,21.20
2018-09-04T13:27:38.453Z,21.30
2018-09-04T13:30:06.904Z,21.30
2018-09-04T13:32:35.273Z,21.40
2018-09-04T13:35:04.595Z,21.40
2018-09-04T13:37:33.022Z,21.40
2018-09-04T13:40:02.437Z,21.50
2018-09-04T13:42:31.967Z,21.60
2018-09-04T13:45:00.401Z,21.50
2018-09-04T13:47:33.843Z,21.40
2018-09-04T13:50:02.323Z,21.20
2018-09-04T13:52:31.816Z,21.30
2018-09-04T13:55:00.267Z,21.30
2018-09-04T13:57:29.337Z,21.30
2018-09-04T13:59:57.881Z,21.20
2018-09-04T14:02:26.434Z,21.40
2018-09-04T14:04:54.867Z,21.20
2018-09-04T14:07:23.269Z,21.00
2018-09-04T14:09:51.729Z,20.90
2018-09-04T14:12:20.154Z,20.80
2018-09-04T14:14:48.615Z,21.00
2018-09-04T14:17:18.720Z,21.10
2018-09-04T14:19:47.195Z,21.40
2018-09-04T14:22:16.033Z,21.00
2018-09-04T14:24:44.522Z,21.20
2018-09-04T14:27:13.019Z,21.20
2018-09-04T14:30:15.541Z,21.20
2018-09-04T14:32:09.993Z,21.10
2018-09-04T14:34:38.393Z,21.10
2018-09-04T14:37:06.930Z,20.80
2018-09-04T14:39:35.397Z,20.80
2018-09-04T14:42:04.662Z,20.80
2018-09-04T14:44:33.090Z,20.50
2018-09-04T14:47:01.530Z,20.10
2018-09-04T14:49:30.046Z,20.20
2018-09-04T14:51:58.505Z,20.20
2018-09-04T14:54:26.966Z,20.00
2018-09-04T14:56:55.545Z,19.80
2018-09-04T14:59:23.986Z,19.60
2018-09-04T15:01:52.434Z,19.60
2018-09-04T15:04:20.876Z,19.60
2018-09-04T15:06:49.358Z,19.60
2018-09-04T15:09:17.802Z,19.60
2018-09-04T15:11:46.276Z,19.60
2018-09-04T15:14:14.724Z,19.60
2018-09-04T15:16:43.156Z,19.60
2018-09-04T15:19:11.618Z,19.60
2018-09-04T15:21:40.109Z,19.70
2018-09-04T15:24:08.585Z,19.80
2018-09-04T15:26:37.008Z,19.80
2018-09-04T15:29:05.478Z,19.90
2018-09-04T15:31:33.936Z,19.90
2018-09-04T15:34:02.416Z,19.90
2018-09-04T15:36:30.814Z,19.80
2018-09-04T15:38:59.296Z,19.80
2018-09-04T15:41:27.728Z,19.90
2018-09-04T15:43:56.198Z,19.90
2018-09-04T15:46:25.283Z,19.90
2018-09-04T15:48:58.962Z,19.70
2018-09-04T15:51:27.428Z,19.70
2018-09-04T15:53:56.045Z,19.60
2018-09-04T15:56:24.528Z,19.50
2018-09-04T15:58:52.978Z,19.50
2018-09-04T16:01:21.462Z,19.60
2018-09-04T16:03:49.983Z,19.60
2018-09-04T16:06:18.470Z,19.70
2018-09-04T16:08:47.203Z,19.70
2018-09-04T16:11:15.689Z,19.80
2018-09-04T16:13:44.629Z,19.70
2018-09-04T16:16:13.772Z,20.10
2018-09-04T16:18:42.300Z,19.90
2018-09-04T16:21:11.077Z,19.90
2018-09-04T16:23:39.687Z,19.90
2018-09-04T16:26:08.220Z,20.00
2018-09-04T16:28:37.538Z,19.90
2018-09-04T16:31:06.113Z,19.90
2018-09-04T16:33:34.613Z,19.90
2018-09-04T16:36:03.176Z,19.80
2018-09-04T16:38:31.698Z,19.70
2018-09-04T16:41:00.174Z,19.60
2018-09-04T16:43:28.725Z,19.60
2018-09-04T16:45:57.524Z,19.50
2018-09-04T16:48:26.052Z,19.50
2018-09-04T16:50:54.557Z,19.40
2018-09-04T16:53:23.103Z,19.40
2018-09-04T16:55:51.623Z,19.40
2018-09-04T16:58:20.821Z,19.30
2018-09-04T17:00:49.402Z,19.20
2018-09-04T17:03:18.526Z,19.20
2018-09-04T17:05:47.026Z,19.20
2018-09-04T17:08:15.516Z,19.10
2018-09-04T17:10:43.983Z,19.10
2018-09-04T17:13:12.663Z,19.00
2018-09-04T17:15:42.574Z,19.00
2018-09-04T17:18:11.086Z,19.00
2018-09-04T17:23:08.249Z,18.40
2018-09-04T17:25:36.805Z,18.90
2018-09-04T17:28:05.451Z,18.20
2018-09-04T17:30:34.001Z,18.50
2018-09-04T17:33:02.628Z,18.30
2018-09-04T17:35:31.289Z,18.40
2018-09-04T17:38:01.567Z,18.40
2018-09-04T17:40:31.210Z,18.20
2018-09-04T17:42:59.762Z,18.20
2018-09-04T17:45:28.224Z,17.90
2018-09-04T17:47:56.759Z,17.90
2018-09-04T17:50:27.319Z,17.90
2018-09-04T17:52:55.821Z,17.90
2018-09-04T17:55:24.355Z,17.80
2018-09-04T17:57:52.907Z,17.80
2018-09-04T18:00:22.202Z,17.70
2018-09-04T18:02:50.681Z,17.70
2018-09-04T18:05:19.068Z,17.70
2018-09-04T18:07:48.303Z,17.10
2018-09-04T18:10:16.658Z,17.50
2018-09-04T18:12:45.218Z,17.50
2018-09-04T18:15:13.900Z,17.40
2018-09-04T18:17:42.502Z,17.40
2018-09-04T18:20:11.114Z,17.40
2018-09-04T18:22:40.490Z,17.30
2018-09-04T18:25:09.083Z,17.20
2018-09-04T18:27:37.879Z,17.40
2018-09-04T18:30:07.484Z,17.20
2018-09-04T18:32:36.820Z,17.20
2018-09-04T18:35:05.956Z,17.30
2018-09-04T18:37:36.254Z,17.10
2018-09-04T18:40:05.910Z,17.30
2018-09-04T18:42:34.811Z,17.10
2018-09-04T18:45:03.604Z,16.80
2018-09-04T18:47:32.297Z,17.00
2018-09-04T18:50:01.468Z,17.10
2018-09-04T18:52:31.189Z,16.90
2018-09-04T18:55:00.427Z,17.30
2018-09-04T18:57:28.994Z,16.90
2018-09-04T18:59:57.581Z,16.70
2018-09-04T19:02:28.345Z,16.80
2018-09-04T19:04:56.973Z,16.70
2018-09-04T19:07:26.731Z,16.80
2018-09-04T19:09:55.945Z,16.90
2018-09-04T19:12:24.543Z,16.80
2018-09-04T19:14:53.119Z,16.80
2018-09-04T19:17:22.498Z,17.00
2018-09-04T19:19:51.008Z,16.90
2018-09-04T19:22:19.725Z,17.00
2018-09-04T19:24:49.019Z,17.10
2018-09-04T19:27:17.962Z,17.10
2018-09-04T19:29:46.481Z,17.20
2018-09-04T19:32:15.881Z,16.60
2018-09-04T19:34:48.424Z,17.20
2018-09-04T19:37:17.646Z,17.30
2018-09-04T19:39:46.205Z,17.20
2018-09-04T19:42:14.833Z,17.30
2018-09-04T19:44:43.474Z,17.40
2018-09-04T19:47:13.194Z,17.20
2018-09-04T19:49:42.843Z,17.30
2018-09-04T19:52:12.928Z,17.60
2018-09-04T19:54:42.021Z,17.20
2018-09-04T19:57:11.455Z,17.20
2018-09-04T19:59:41.198Z,17.20
2018-09-04T20:02:10.450Z,17.40
2018-09-04T20:04:40.200Z,17.20
2018-09-04T20:07:10.159Z,17.20
2018-09-04T20:09:41.088Z,17.20
2018-09-04T20:12:10.459Z,17.30
2018-09-04T20:14:39.056Z,17.20
2018-09-04T20:17:07.944Z,17.20
2018-09-04T20:19:36.538Z,17.20
2018-09-04T20:22:07.813Z,17.20
2018-09-04T20:24:38.050Z,17.20
2018-09-04T20:27:06.672Z,17.20
2018-09-04T20:29:35.636Z,17.30
2018-09-04T20:32:04.499Z,17.40
2018-09-04T20:37:01.296Z,17.30
2018-09-04T20:39:29.894Z,17.80
2018-09-04T20:41:59.512Z,17.40
2018-09-04T20:44:28.170Z,17.20
2018-09-04T20:46:56.800Z,17.20
2018-09-04T20:49:25.696Z,17.50
2018-09-04T20:51:55.016Z,17.20
2018-09-04T20:54:24.208Z,17.30
2018-09-04T20:56:57.290Z,17.30
2018-09-04T20:59:37.018Z,17.30
2018-09-04T21:02:17.077Z,17.20
2018-09-04T21:04:56.779Z,17.20
2018-09-04T21:07:45.098Z,17.20
2018-09-04T21:10:13.694Z,17.10
2018-09-04T21:12:42.438Z,17.10
2018-09-04T21:15:11.004Z,16.80
2018-09-04T21:17:39.732Z,17.00
2018-09-04T21:20:08.214Z,17.10
2018-09-04T21:22:36.682Z,16.90
2018-09-04T21:25:05.300Z,16.90
2018-09-04T21:27:33.746Z,16.80
2018-09-04T21:30:02.276Z,16.60
2018-09-04T21:32:30.747Z,16.70
2018-09-04T21:34:59.194Z,16.60
2018-09-04T21:39:56.824Z,16.50
2018-09-04T21:42:25.342Z,16.30
2018-09-04T21:44:53.770Z,16.30
2018-09-04T21:47:22.792Z,16.30
2018-09-04T21:49:51.239Z,16.30
2018-09-04T21:52:19.832Z,16.20
2018-09-04T21:54:48.284Z,16.20
2018-09-04T21:57:17.026Z,16.10
2018-09-04T21:59:45.529Z,15.90
2018-09-04T22:02:14.038Z,15.90
2018-09-04T22:04:43.021Z,15.50
2018-09-04T22:07:11.570Z,15.90
2018-09-04T22:09:40.043Z,15.90
2018-09-04T22:12:10.420Z,15.90
2018-09-04T22:14:38.876Z,15.80
2018-09-04T22:17:07.375Z,15.80
2018-09-04T22:19:35.825Z,15.80
2018-09-04T22:22:04.286Z,15.70
2018-09-04T22:24:36.482Z,15.70
2018-09-04T22:27:08.531Z,15.20
2018-09-04T22:29:40.140Z,15.60
2018-09-04T22:32:08.610Z,15.50
2018-09-04T22:34:37.016Z,15.50
2018-09-04T22:37:05.442Z,15.50
2018-09-04T22:39:33.872Z,15.50
2018-09-04T22:42:02.307Z,15.40
2018-09-04T22:44:30.734Z,15.50
2018-09-04T22:46:59.177Z,15.40
2018-09-04T22:51:59.635Z,15.50
2018-09-04T22:54:28.192Z,15.50
2018-09-04T22:56:56.673Z,15.60
2018-09-04T22:59:25.630Z,15.70
2018-09-04T23:01:54.215Z,15.80
2018-09-04T23:04:23.013Z,15.70
2018-09-04T23:06:51.427Z,15.70
2018-09-04T23:09:19.831Z,15.70
2018-09-04T23:11:48.281Z,15.60
2018-09-04T23:14:16.787Z,15.60
2018-09-04T23:16:45.209Z,15.60
2018-09-04T23:19:13.651Z,15.70
2018-09-04T23:21:42.077Z,15.60
2018-09-04T23:24:10.488Z,15.60
2018-09-04T23:26:38.885Z,15.50
2018-09-04T23:29:07.339Z,15.40
2018-09-04T23:31:35.782Z,15.40
2018-09-04T23:34:04.217Z,15.50
2018-09-04T23:36:32.617Z,15.20
2018-09-04T23:39:01.015Z,15.00
2018-09-04T23:41:29.435Z,15.20
2018-09-04T23:43:57.854Z,15.20
2018-09-04T23:46:26.249Z,15.20
2018-09-04T23:48:54.674Z,15.20
2018-09-04T23:51:23.060Z,15.20
2018-09-04T23:53:51.804Z,15.20
2018-09-04T23:56:20.178Z,15.10
2018-09-04T23:58:48.597Z,15.30
